Pagrindinis puslapis
METAR-TAF:

METAR-TAF

Oro uostai :

Wakkanai, Japonija

platuma: 45-24N, ilguma: 141-48E, Aukštis: 8 m

Dabartinis oras

Ataskaita buvo paskelbta 26 minutes, ne 08:00 UTC
Vėjas 9 kt iš Vakarų/Šiaurės Vakarų
Temperatūra 17°C
Drėgmė 77%
Slėgis 1008 hPa
Matomumas 10 km arba daugiau
Mažai debesys ne aukštis 1500 ft
Išsisklaidę debesys

METAR: RJCW 190800Z 29009KT 9999 FEW015 SCT/// 17/13 Q1008

Laikas: 17:26 (08:26 UTC)


TAF: trūkstamas

Orai ataskaitas ir orų prognozės (METAR, TAF).

turimą stotys yra geltonos ir raudonos taškus žemėlapyje.

Perkelti pele per norėdami pamatyti stoties vardą.

Tada spustelėkite, norėdami matyti oro stebėjimo ir prognozės.

Norėdami pakeisti žemėlapį: spustelėkite ant žalios mygtukų su juodo kryžiaus žemyn,; žalią mygtuką su brūkšneliu, jei norite nutolinti; arba žalių rodyklių gretimoms žemėlapius.


METAR-TAF: